Time;durP1;ratioP1;P1;durP2;ratioP2;P2;SDS_P1;SDS_P2;PMS_P1;PMS_P2;Temp;Humidity;BMP_temperature;BMP_pressure;BME280_temperature;BME280_humidity;BME280_pressure;Samples;Min_cycle;Max_cycle;Signal;HPM_P1;HPM_P2
2021/12/29 00:07:06;;;;;;;6.53;5.35;;;;;;;20.74;nan;99397.53;20415717;28;101310;-60
2021/12/29 00:17:06;;;;;;;7.05;4.95;;;;;;;20.70;nan;99407.50;20386527;28;102748;-61
2021/12/29 00:27:10;;;;;;;5.93;4.50;;;;;;;20.64;nan;99419.38;20393294;28;98508;-60
2021/12/29 00:37:11;;;;;;;6.45;4.50;;;;;;;20.63;nan;99398.50;20463561;28;102135;-61
2021/12/29 00:47:12;;;;;;;5.55;4.20;;;;;;;20.59;nan;99403.19;20431057;28;98458;-59
2021/12/29 00:57:13;;;;;;;4.97;4.07;;;;;;;20.56;nan;99395.56;20412719;28;103041;-61
2021/12/29 01:07:14;;;;;;;4.63;3.88;;;;;;;20.53;nan;99382.72;20409497;28;102784;-59
2021/12/29 01:17:14;;;;;;;4.13;3.50;;;;;;;20.52;nan;99378.41;20398106;28;100283;-60
2021/12/29 01:27:17;;;;;;;4.40;3.38;;;;;;;20.48;nan;99362.09;20414816;28;102143;-60
2021/12/29 01:37:17;;;;;;;3.38;3.05;;;;;;;20.46;nan;99360.56;20433826;28;99673;-59
2021/12/29 01:47:27;;;;;;;4.00;3.05;;;;;;;20.44;nan;99365.13;20407228;28;99199;-58
2021/12/29 01:57:28;;;;;;;5.55;2.90;;;;;;;20.40;nan;99372.47;20424923;28;99449;-60
2021/12/29 02:07:30;;;;;;;3.72;2.97;;;;;;;20.39;nan;99389.19;20382528;28;108804;-59
2021/12/29 02:17:30;;;;;;;3.88;2.85;;;;;;;20.36;nan;99405.25;20401576;28;102377;-60
2021/12/29 02:27:32;;;;;;;3.40;3.10;;;;;;;20.33;nan;99396.81;20373848;28;100119;-59
2021/12/29 02:37:33;;;;;;;3.92;3.05;;;;;;;20.30;nan;99397.94;20403163;28;102218;-59
2021/12/29 02:47:34;;;;;;;3.25;2.67;;;;;;;20.30;nan;99403.19;20377413;28;99311;-60
2021/12/29 02:57:34;;;;;;;3.30;2.90;;;;;;;20.26;nan;99386.84;20417546;28;101396;-60
2021/12/29 03:07:35;;;;;;;3.83;2.80;;;;;;;20.25;nan;99395.72;20384815;28;101539;-60
2021/12/29 03:17:35;;;;;;;3.72;3.00;;;;;;;20.22;nan;99390.72;20421668;28;101141;-59
2021/12/29 03:27:37;;;;;;;4.43;3.33;;;;;;;20.21;nan;99383.78;20429387;28;103669;-60
2021/12/29 03:37:39;;;;;;;5.40;2.97;;;;;;;20.21;nan;99373.28;20424396;28;105667;-60
2021/12/29 03:47:40;;;;;;;4.35;3.28;;;;;;;20.21;nan;99382.97;20420524;28;102435;-59
2021/12/29 03:57:41;;;;;;;3.80;2.90;;;;;;;20.19;nan;99385.75;20404436;28;101036;-59
2021/12/29 04:07:41;;;;;;;3.75;2.90;;;;;;;20.15;nan;99406.22;20406357;28;103105;-60
2021/12/29 04:17:43;;;;;;;3.90;3.20;;;;;;;20.12;nan;99393.31;20410077;28;99534;-60
2021/12/29 04:27:44;;;;;;;4.03;3.00;;;;;;;20.10;nan;99402.31;20398666;28;99214;-60
2021/12/29 04:37:47;;;;;;;4.35;3.05;;;;;;;20.11;nan;99406.59;20382120;28;102155;-60
2021/12/29 04:47:49;;;;;;;4.07;3.13;;;;;;;20.09;nan;99414.63;20402354;28;99362;-60
2021/12/29 04:57:50;;;;;;;4.78;3.58;;;;;;;20.09;nan;99409.38;20393440;28;102042;-60
2021/12/29 05:18:12;;;;;;;5.82;4.13;;;;;;;20.24;nan;99427.41;20392768;28;101597;-60
2021/12/29 05:28:14;;;;;;;7.40;5.30;;;;;;;20.35;nan;99418.53;20440426;28;101804;-60
2021/12/29 05:38:18;;;;;;;7.50;4.88;;;;;;;20.44;nan;99422.97;20385080;28;101132;-60
2021/12/29 05:48:19;;;;;;;6.80;5.25;;;;;;;20.53;nan;99443.19;20448115;28;100805;-60
2021/12/29 05:58:20;;;;;;;8.38;5.80;;;;;;;20.59;nan;99444.44;20390571;28;99182;-60
2021/12/29 06:08:21;;;;;;;9.32;5.82;;;;;;;20.63;nan;99445.84;20382609;28;98848;-58
2021/12/29 06:18:21;;;;;;;11.23;7.32;;;;;;;20.70;nan;99441.69;20413125;28;99205;-60
2021/12/29 06:28:23;;;;;;;10.25;7.47;;;;;;;20.77;nan;99442.78;20381253;28;99954;-60
2021/12/29 06:38:33;;;;;;;9.52;7.15;;;;;;;20.84;nan;99464.13;20403770;28;100046;-60
2021/12/29 06:48:34;;;;;;;11.50;8.23;;;;;;;20.89;nan;99456.66;20373950;28;99716;-59
2021/12/29 06:58:40;;;;;;;14.73;9.20;;;;;;;20.94;nan;99464.94;20392443;28;102050;-60
2021/12/29 07:08:41;;;;;;;20.55;10.30;;;;;;;20.99;nan;99472.44;20386062;28;99610;-61
2021/12/29 07:18:43;;;;;;;18.75;10.35;;;;;;;21.20;nan;99487.22;20371106;28;99763;-60
2021/12/29 07:28:43;;;;;;;17.25;11.10;;;;;;;21.37;nan;99514.66;20369344;28;101771;-60
2021/12/29 07:38:44;;;;;;;23.17;12.70;;;;;;;21.53;nan;99516.69;20365087;28;100794;-60
2021/12/29 07:48:45;;;;;;;20.55;12.40;;;;;;;21.70;nan;99531.81;20351454;28;106694;-61
2021/12/29 07:58:47;;;;;;;20.02;12.73;;;;;;;21.86;nan;99539.09;20372846;28;103039;-60
2021/12/29 08:08:47;;;;;;;19.88;13.23;;;;;;;21.93;nan;99536.72;20398808;28;102163;-60
2021/12/29 08:18:49;;;;;;;25.08;13.98;;;;;;;22.01;nan;99528.09;20393071;28;102544;-61
2021/12/29 08:28:50;;;;;;;29.03;13.00;;;;;;;21.91;nan;99546.59;20413379;28;101497;-60
2021/12/29 08:38:51;;;;;;;24.80;12.52;;;;;;;21.85;nan;99563.78;20412837;28;97796;-60
2021/12/29 08:48:52;;;;;;;24.08;11.95;;;;;;;21.78;nan;99564.53;20419874;28;98852;-59
2021/12/29 08:58:53;;;;;;;18.38;11.57;;;;;;;21.73;nan;99572.84;20407478;28;101535;-61
2021/12/29 09:08:56;;;;;;;18.63;13.38;;;;;;;21.69;nan;99592.53;20407688;28;99979;-61
2021/12/29 09:18:56;;;;;;;21.73;11.47;;;;;;;21.47;nan;99583.09;20391006;28;99106;-60
2021/12/29 09:28:59;;;;;;;15.68;10.70;;;;;;;21.56;nan;99563.84;20373943;28;101626;-59
2021/12/29 09:39:00;;;;;;;17.70;12.77;;;;;;;21.53;nan;99535.97;20384323;28;102836;-60
2021/12/29 09:49:01;;;;;;;16.30;11.35;;;;;;;21.59;nan;99542.50;20371037;28;101897;-59
2021/12/29 09:59:03;;;;;;;16.35;11.40;;;;;;;21.62;nan;99533.47;20391968;28;99583;-60
2021/12/29 10:09:15;;;;;;;22.35;11.73;;;;;;;21.59;nan;99514.38;20380704;28;102240;-61
2021/12/29 10:19:16;;;;;;;23.30;10.95;;;;;;;21.29;nan;99518.00;20400894;28;100912;-60
2021/12/29 10:29:19;;;;;;;19.00;9.93;;;;;;;21.27;nan;99515.47;20424169;28;98741;-60
2021/12/29 10:39:26;;;;;;;22.75;8.93;;;;;;;21.29;nan;99518.00;20398974;28;101718;-60
2021/12/29 10:49:32;;;;;;;13.30;8.15;;;;;;;21.30;nan;99524.94;20406639;28;101278;-60
2021/12/29 10:59:41;;;;;;;12.73;8.23;;;;;;;21.34;nan;99531.56;20406322;28;102785;-61
2021/12/29 11:09:42;;;;;;;12.88;7.97;;;;;;;21.36;nan;99518.25;20416579;28;100369;-62
2021/12/29 11:19:53;;;;;;;11.82;8.02;;;;;;;21.38;nan;99524.22;20409275;28;98669;-61
2021/12/29 11:30:05;;;;;;;12.35;8.32;;;;;;;21.37;nan;99517.28;20405540;28;99361;-61
2021/12/29 11:40:09;;;;;;;12.83;8.43;;;;;;;21.37;nan;99528.66;20442647;28;98559;-61
2021/12/29 11:50:16;;;;;;;13.23;9.15;;;;;;;21.37;nan;99536.56;20416182;28;98936;-61
2021/12/29 12:00:21;;;;;;;11.65;8.65;;;;;;;21.36;nan;99532.25;20458385;28;98767;-59
2021/12/29 12:10:35;;;;;;;12.18;8.65;;;;;;;21.38;nan;99537.38;20490586;28;98541;-60
2021/12/29 12:20:49;;;;;;;14.63;10.40;;;;;;;21.35;nan;99556.94;20506552;28;98760;-60
2021/12/29 12:30:54;;;;;;;13.13;9.27;;;;;;;21.35;nan;99548.19;20501610;28;98756;-60
2021/12/29 12:41:12;;;;;;;13.32;10.02;;;;;;;21.36;nan;99557.75;20500035;28;98605;-60
2021/12/29 12:51:18;;;;;;;12.15;9.25;;;;;;;21.34;nan;99563.16;20422913;28;98473;-61
2021/12/29 13:01:25;;;;;;;12.07;9.13;;;;;;;21.32;nan;99567.72;20416521;28;100197;-60
2021/12/29 13:11:25;;;;;;;11.38;8.65;;;;;;;21.32;nan;99587.97;20416548;28;101229;-60
2021/12/29 13:21:31;;;;;;;11.85;8.88;;;;;;;21.32;nan;99590.59;20444393;28;98415;-61
2021/12/29 13:31:33;;;;;;;11.70;8.93;;;;;;;21.30;nan;99597.81;20439123;28;99495;-61
2021/12/29 13:41:37;;;;;;;11.15;8.50;;;;;;;21.29;nan;99607.53;20421283;28;99731;-61
2021/12/29 13:51:44;;;;;;;12.00;9.20;;;;;;;21.28;nan;99626.91;20416352;28;97987;-60
2021/12/29 14:01:57;;;;;;;12.70;9.68;;;;;;;21.26;nan;99634.97;20428113;28;101158;-60
2021/12/29 14:12:10;;;;;;;12.65;9.90;;;;;;;21.24;nan;99642.16;20423702;28;97714;-60
2021/12/29 14:22:28;;;;;;;13.35;10.15;;;;;;;21.26;nan;99663.06;20437019;28;100814;-61
2021/12/29 14:32:30;;;;;;;12.93;9.55;;;;;;;21.24;nan;99668.47;20430249;28;99068;-61
2021/12/29 14:42:37;;;;;;;12.25;9.65;;;;;;;21.25;nan;99679.84;20498490;28;101860;-60
2021/12/29 14:52:45;;;;;;;12.48;9.68;;;;;;;21.22;nan;99691.47;20502511;28;99271;-60
2021/12/29 15:02:47;;;;;;;12.68;9.75;;;;;;;21.21;nan;99704.78;20502234;27;101932;-60
2021/12/29 15:12:51;;;;;;;13.97;10.00;;;;;;;21.19;nan;99717.25;20499224;28;103092;-60
2021/12/29 15:22:52;;;;;;;12.93;9.52;;;;;;;21.19;nan;99731.25;20498636;28;100640;-60
2021/12/29 15:32:53;;;;;;;13.85;9.98;;;;;;;21.19;nan;99725.13;20495825;28;101948;-60
2021/12/29 15:42:53;;;;;;;12.75;9.52;;;;;;;21.18;nan;99737.47;20499999;28;98011;-60
2021/12/29 15:52:55;;;;;;;12.38;9.07;;;;;;;21.19;nan;99741.78;20497875;28;100120;-60
2021/12/29 16:02:57;;;;;;;12.02;9.55;;;;;;;21.19;nan;99759.38;20494819;28;101661;-60
2021/12/29 16:12:58;;;;;;;12.10;8.63;;;;;;;21.19;nan;99775.16;20495717;28;97495;-61
2021/12/29 16:22:59;;;;;;;12.45;9.32;;;;;;;21.18;nan;99790.13;20498908;28;98028;-60
2021/12/29 16:33:00;;;;;;;11.25;8.50;;;;;;;21.19;nan;99790.97;20511549;28;99633;-60
2021/12/29 16:43:00;;;;;;;12.07;8.85;;;;;;;21.19;nan;99804.97;20502348;28;98416;-62
2021/12/29 16:53:01;;;;;;;10.82;8.38;;;;;;;21.20;nan;99816.31;20507071;28;101208;-61
2021/12/29 17:03:04;;;;;;;10.23;7.80;;;;;;;21.21;nan;99818.00;20512724;28;99001;-61
2021/12/29 17:13:04;;;;;;;11.00;8.00;;;;;;;21.22;nan;99828.38;20507325;28;98705;-61
2021/12/29 17:23:06;;;;;;;10.73;7.97;;;;;;;21.21;nan;99841.69;20508756;28;101804;-60
2021/12/29 17:33:07;;;;;;;9.98;7.80;;;;;;;21.21;nan;99844.31;20511397;28;99341;-62
2021/12/29 17:43:11;;;;;;;9.00;6.85;;;;;;;21.20;nan;99861.94;20506085;28;98658;-61
2021/12/29 17:53:14;;;;;;;10.70;7.32;;;;;;;21.20;nan;99867.19;20506789;28;98927;-61
2021/12/29 18:03:15;;;;;;;10.25;7.35;;;;;;;21.20;nan;99866.34;20502429;28;98763;-60
2021/12/29 18:13:16;;;;;;;9.15;7.05;;;;;;;21.20;nan;99876.88;20502338;28;100125;-61
2021/12/29 18:23:17;;;;;;;8.00;6.32;;;;;;;21.20;nan;99888.28;20500216;28;98499;-60
2021/12/29 18:33:18;;;;;;;8.50;6.40;;;;;;;21.21;nan;99886.47;20498405;28;102022;-61
2021/12/29 18:43:18;;;;;;;8.35;6.78;;;;;;;21.20;nan;99913.75;20501811;28;101672;-60
2021/12/29 18:53:19;;;;;;;8.23;6.30;;;;;;;21.19;nan;99928.72;20498419;28;104135;-61
2021/12/29 19:03:22;;;;;;;8.27;6.10;;;;;;;21.18;nan;99942.00;20500572;28;97826;-62
2021/12/29 19:13:25;;;;;;;8.05;6.07;;;;;;;21.16;nan;99926.34;20499308;28;101253;-61
2021/12/29 19:23:26;;;;;;;7.43;5.90;;;;;;;21.17;nan;99948.25;20494665;28;106710;-61
2021/12/29 19:33:27;;;;;;;7.32;5.72;;;;;;;21.17;nan;99948.25;20494003;28;97919;-61
2021/12/29 19:43:29;;;;;;;7.05;5.50;;;;;;;21.12;nan;99930.22;20488694;28;97840;-61
2021/12/29 19:53:30;;;;;;;10.07;5.50;;;;;;;21.17;nan;99951.72;20487547;28;99346;-60
2021/12/29 20:03:31;;;;;;;7.78;5.13;;;;;;;21.22;nan;99956.59;20497145;28;97413;-61
2021/12/29 20:13:32;;;;;;;7.63;5.30;;;;;;;21.24;nan;99973.91;20509488;28;97639;-61
2021/12/29 20:23:33;;;;;;;9.43;5.20;;;;;;;21.23;nan;99976.69;20500333;28;101843;-61
2021/12/29 20:33:34;;;;;;;11.80;6.63;;;;;;;21.20;nan;99987.47;20499158;28;100606;-61
2021/12/29 20:43:35;;;;;;;38.40;24.40;;;;;;;21.11;nan;99997.81;20502944;28;102680;-61
2021/12/29 20:53:36;;;;;;;16.58;8.15;;;;;;;20.97;nan;100024.47;20497846;28;102201;-61
2021/12/29 21:03:37;;;;;;;12.50;7.65;;;;;;;20.93;nan;100036.19;20495512;28;97806;-61
2021/12/29 21:13:38;;;;;;;13.00;7.85;;;;;;;20.89;nan;100032.97;20489591;28;98872;-61
2021/12/29 21:23:39;;;;;;;11.70;8.10;;;;;;;20.85;nan;100041.22;20499063;28;99016;-61
2021/12/29 21:33:41;;;;;;;11.30;7.95;;;;;;;20.79;nan;100043.41;20490975;28;99136;-61
2021/12/29 21:43:42;;;;;;;12.40;7.03;;;;;;;20.76;nan;100054.19;20501315;28;102495;-61
2021/12/29 21:53:43;;;;;;;12.68;7.35;;;;;;;20.73;nan;100064.94;20495409;28;98596;-60
2021/12/29 22:03:44;;;;;;;10.00;7.32;;;;;;;20.69;nan;100070.53;20498031;28;100998;-60
2021/12/29 22:13:45;;;;;;;10.57;6.95;;;;;;;20.64;nan;100066.50;20492868;28;102518;-61
2021/12/29 22:23:46;;;;;;;10.43;6.93;;;;;;;20.62;nan;100078.94;20487739;28;101455;-61
2021/12/29 22:33:48;;;;;;;11.25;6.57;;;;;;;20.62;nan;100101.78;20486783;28;98546;-61
2021/12/29 22:43:51;;;;;;;10.80;6.53;;;;;;;20.57;nan;100101.31;20482998;28;97946;-60
2021/12/29 22:53:53;;;;;;;9.80;6.75;;;;;;;20.56;nan;100115.44;20476957;28;100290;-60
2021/12/29 23:03:55;;;;;;;11.50;6.30;;;;;;;20.50;nan;100129.06;20478607;28;101844;-61
2021/12/29 23:14:06;;;;;;;8.23;6.18;;;;;;;20.50;nan;100150.09;20480155;28;100171;-60
2021/12/29 23:24:08;;;;;;;7.35;5.28;;;;;;;20.45;nan;100153.09;20473902;28;98975;-61
2021/12/29 23:34:10;;;;;;;7.43;5.23;;;;;;;20.43;nan;100173.41;20483741;28;102043;-61
2021/12/29 23:44:11;;;;;;;8.95;5.88;;;;;;;20.40;nan;100177.13;20494613;28;100281;-61
2021/12/29 23:54:17;;;;;;;8.70;5.20;;;;;;;20.37;nan;100197.56;20492935;28;101424;-60
